sensor_id;sensor_type;location;lat;lon;timestamp;pressure;altitude;pressure_sealevel;temperature;humidity
68193;BME280;55012;47.562;18.414;2023-12-04T00:01:08;100236.63;;;-4.41;100.00
68193;BME280;55012;47.562;18.414;2023-12-04T00:03:34;100215.38;;;-4.46;100.00
68193;BME280;55012;47.562;18.414;2023-12-04T00:05:59;100220.53;;;-4.40;100.00
68193;BME280;55012;47.562;18.414;2023-12-04T00:08:25;100220.78;;;-4.41;100.00
68193;BME280;55012;47.562;18.414;2023-12-04T00:10:50;100213.88;;;-4.42;100.00
68193;BME280;55012;47.562;18.414;2023-12-04T00:13:17;100219.50;;;-4.39;100.00
68193;BME280;55012;47.562;18.414;2023-12-04T00:15:44;100229.28;;;-4.39;100.00
68193;BME280;55012;47.562;18.414;2023-12-04T00:18:09;100230.75;;;-4.43;100.00
68193;BME280;55012;47.562;18.414;2023-12-04T00:20:35;100219.16;;;-4.42;100.00
68193;BME280;55012;47.562;18.414;2023-12-04T00:23:00;100220.78;;;-4.41;100.00
68193;BME280;55012;47.562;18.414;2023-12-04T00:25:26;100212.50;;;-4.45;100.00
68193;BME280;55012;47.562;18.414;2023-12-04T00:27:51;100212.28;;;-4.43;100.00
68193;BME280;55012;47.562;18.414;2023-12-04T00:30:17;100206.41;;;-4.45;100.00
68193;BME280;55012;47.562;18.414;2023-12-04T00:32:42;100211.81;;;-4.40;100.00
68193;BME280;55012;47.562;18.414;2023-12-04T00:35:08;100211.81;;;-4.40;100.00
68193;BME280;55012;47.562;18.414;2023-12-04T00:37:33;100208.59;;;-4.42;100.00
68193;BME280;55012;47.562;18.414;2023-12-04T00:40:04;100209.41;;;-4.42;100.00
68193;BME280;55012;47.562;18.414;2023-12-04T00:42:29;100208.59;;;-4.42;100.00
68193;BME280;55012;47.562;18.414;2023-12-04T00:44:55;100214.34;;;-4.45;100.00
68193;BME280;55012;47.562;18.414;2023-12-04T00:47:20;100204.09;;;-4.54;100.00
68193;BME280;55012;47.562;18.414;2023-12-04T00:49:46;100208.31;;;-4.53;100.00
68193;BME280;55012;47.562;18.414;2023-12-04T00:52:11;100205.31;;;-4.56;100.00
68193;BME280;55012;47.562;18.414;2023-12-04T00:54:39;100213.22;;;-4.56;100.00
68193;BME280;55012;47.562;18.414;2023-12-04T00:57:06;100206.34;;;-4.57;100.00
68193;BME280;55012;47.562;18.414;2023-12-04T00:59:31;100209.56;;;-4.55;100.00
68193;BME280;55012;47.562;18.414;2023-12-04T01:01:57;100209.78;;;-4.57;100.00
68193;BME280;55012;47.562;18.414;2023-12-04T01:04:22;100218.09;;;-4.53;100.00
68193;BME280;55012;47.562;18.414;2023-12-04T01:06:48;100218.31;;;-4.55;100.00
68193;BME280;55012;47.562;18.414;2023-12-04T01:09:13;100218.97;;;-4.59;100.00
68193;BME280;55012;47.562;18.414;2023-12-04T01:11:39;100215.53;;;-4.60;100.00
68193;BME280;55012;47.562;18.414;2023-12-04T01:14:05;100218.16;;;-4.60;100.00
68193;BME280;55012;47.562;18.414;2023-12-04T01:16:30;100221.59;;;-4.59;100.00
68193;BME280;55012;47.562;18.414;2023-12-04T01:18:56;100227.13;;;-4.61;100.00
68193;BME280;55012;47.562;18.414;2023-12-04T01:21:21;100238.69;;;-4.62;100.00
68193;BME280;55012;47.562;18.414;2023-12-04T01:23:47;100245.81;;;-4.62;100.00
68193;BME280;55012;47.562;18.414;2023-12-04T01:26:12;100238.94;;;-4.63;100.00
68193;BME280;55012;47.562;18.414;2023-12-04T01:28:38;100239.34;;;-4.66;100.00
68193;BME280;55012;47.562;18.414;2023-12-04T01:31:04;100238.53;;;-4.67;100.00
68193;BME280;55012;47.562;18.414;2023-12-04T01:33:30;100244.84;;;-4.68;100.00
68193;BME280;55012;47.562;18.414;2023-12-04T01:35:56;100247.13;;;-4.71;100.00
68193;BME280;55012;47.562;18.414;2023-12-04T01:38:21;100246.13;;;-4.70;100.00
68193;BME280;55012;47.562;18.414;2023-12-04T01:40:47;100248.53;;;-4.69;100.00
68193;BME280;55012;47.562;18.414;2023-12-04T01:43:12;100254.03;;;-4.70;100.00
68193;BME280;55012;47.562;18.414;2023-12-04T01:45:38;100248.94;;;-4.72;100.00
68193;BME280;55012;47.562;18.414;2023-12-04T01:48:04;100246.69;;;-4.68;100.00
68193;BME280;55012;47.562;18.414;2023-12-04T01:50:33;100245.44;;;-4.66;100.00
68193;BME280;55012;47.562;18.414;2023-12-04T01:52:58;100247.66;;;-4.63;100.00
68193;BME280;55012;47.562;18.414;2023-12-04T01:55:24;100250.28;;;-4.63;100.00
68193;BME280;55012;47.562;18.414;2023-12-04T01:57:50;100251.09;;;-4.62;100.00
68193;BME280;55012;47.562;18.414;2023-12-04T02:00:16;100248.81;;;-4.59;100.00
68193;BME280;55012;47.562;18.414;2023-12-04T02:02:42;100253.50;;;-4.61;100.00
68193;BME280;55012;47.562;18.414;2023-12-04T02:05:08;100242.94;;;-4.61;100.00
68193;BME280;55012;47.562;18.414;2023-12-04T02:07:34;100237.44;;;-4.59;100.00
68193;BME280;55012;47.562;18.414;2023-12-04T02:10:02;100235.03;;;-4.61;100.00
68193;BME280;55012;47.562;18.414;2023-12-04T02:12:28;100237.66;;;-4.61;100.00
68193;BME280;55012;47.562;18.414;2023-12-04T02:14:54;100240.88;;;-4.59;100.00
68193;BME280;55012;47.562;18.414;2023-12-04T02:17:20;100237.44;;;-4.59;100.00
68193;BME280;55012;47.562;18.414;2023-12-04T02:19:47;100240.09;;;-4.59;100.00
68193;BME280;55012;47.562;18.414;2023-12-04T02:22:12;100240.66;;;-4.57;100.00
68193;BME280;55012;47.562;18.414;2023-12-04T02:24:38;100247.94;;;-4.53;100.00
68193;BME280;55012;47.562;18.414;2023-12-04T02:27:15;100244.50;;;-4.53;100.00
68193;BME280;55012;47.562;18.414;2023-12-04T02:29:55;100245.28;;;-4.53;100.00
68193;BME280;55012;47.562;18.414;2023-12-04T02:32:22;100246.09;;;-4.52;100.00
68193;BME280;55012;47.562;18.414;2023-12-04T02:34:49;100246.09;;;-4.52;100.00
68193;BME280;55012;47.562;18.414;2023-12-04T02:37:16;100249.16;;;-4.55;100.00
68193;BME280;55012;47.562;18.414;2023-12-04T02:39:43;100234.81;;;-4.59;100.00
68193;BME280;55012;47.562;18.414;2023-12-04T02:42:09;100243.31;;;-4.57;100.00
68193;BME280;55012;47.562;18.414;2023-12-04T02:44:34;100244.56;;;-4.60;100.00
68193;BME280;55012;47.562;18.414;2023-12-04T02:47:00;100242.16;;;-4.61;100.00
68193;BME280;55012;47.562;18.414;2023-12-04T02:49:25;100245.22;;;-4.64;100.00
68193;BME280;55012;47.562;18.414;2023-12-04T02:51:51;100241.34;;;-4.62;100.00
68193;BME280;55012;47.562;18.414;2023-12-04T02:54:17;100248.66;;;-4.64;100.00
68193;BME280;55012;47.562;18.414;2023-12-04T02:56:42;100247.03;;;-4.65;100.00
68193;BME280;55012;47.562;18.414;2023-12-04T02:59:08;100244.41;;;-4.65;100.00
68193;BME280;55012;47.562;18.414;2023-12-04T03:01:33;100240.16;;;-4.66;100.00
68193;BME280;55012;47.562;18.414;2023-12-04T03:03:58;100232.00;;;-4.64;100.00
68193;BME280;55012;47.562;18.414;2023-12-04T03:06:24;100244.22;;;-4.63;100.00
68193;BME280;55012;47.562;18.414;2023-12-04T03:08:49;100237.50;;;-4.66;100.00
68193;BME280;55012;47.562;18.414;2023-12-04T03:11:15;100241.41;;;-4.68;100.00
68193;BME280;55012;47.562;18.414;2023-12-04T03:13:40;100243.88;;;-4.73;100.00
68193;BME280;55012;47.562;18.414;2023-12-04T03:16:14;100242.16;;;-4.79;100.00
68193;BME280;55012;47.562;18.414;2023-12-04T03:18:39;100245.66;;;-4.86;100.00
68193;BME280;55012;47.562;18.414;2023-12-04T03:21:06;100242.06;;;-4.91;100.00
68193;BME280;55012;47.562;18.414;2023-12-04T03:23:32;100240.88;;;-4.95;100.00
68193;BME280;55012;47.562;18.414;2023-12-04T03:25:57;100247.38;;;-4.98;100.00
68193;BME280;55012;47.562;18.414;2023-12-04T03:28:23;100236.03;;;-4.98;100.00
68193;BME280;55012;47.562;18.414;2023-12-04T03:30:48;100245.94;;;-4.94;100.00
68193;BME280;55012;47.562;18.414;2023-12-04T03:33:14;100243.53;;;-4.95;100.00
68193;BME280;55012;47.562;18.414;2023-12-04T03:35:39;100230.97;;;-5.00;100.00
68193;BME280;55012;47.562;18.414;2023-12-04T03:38:05;100228.78;;;-5.03;100.00
68193;BME280;55012;47.562;18.414;2023-12-04T03:40:31;100224.72;;;-5.05;100.00
68193;BME280;55012;47.562;18.414;2023-12-04T03:42:56;100227.38;;;-5.05;100.00
68193;BME280;55012;47.562;18.414;2023-12-04T03:45:22;100230.00;;;-5.05;100.00
68193;BME280;55012;47.562;18.414;2023-12-04T03:47:47;100221.97;;;-5.11;100.00
68193;BME280;55012;47.562;18.414;2023-12-04T03:50:13;100220.72;;;-5.08;100.00
68193;BME280;55012;47.562;18.414;2023-12-04T03:52:39;100220.47;;;-5.06;100.00
68193;BME280;55012;47.562;18.414;2023-12-04T03:55:05;100218.06;;;-5.08;100.00
68193;BME280;55012;47.562;18.414;2023-12-04T03:57:30;100214.03;;;-5.11;100.00
68193;BME280;55012;47.562;18.414;2023-12-04T03:59:56;100211.41;;;-5.11;100.00
68193;BME280;55012;47.562;18.414;2023-12-04T04:02:21;100208.19;;;-5.13;100.00
68193;BME280;55012;47.562;18.414;2023-12-04T04:04:47;100206.53;;;-5.14;100.00
68193;BME280;55012;47.562;18.414;2023-12-04T04:07:16;100203.72;;;-5.12;100.00
68193;BME280;55012;47.562;18.414;2023-12-04T04:09:42;100205.97;;;-5.16;100.00
68193;BME280;55012;47.562;18.414;2023-12-04T04:12:08;100207.00;;;-5.17;100.00
68193;BME280;55012;47.562;18.414;2023-12-04T04:14:34;100200.34;;;-5.19;100.00
68193;BME280;55012;47.562;18.414;2023-12-04T04:16:59;100213.94;;;-5.22;100.00
68193;BME280;55012;47.562;18.414;2023-12-04T04:19:25;100222.66;;;-5.22;100.00
68193;BME280;55012;47.562;18.414;2023-12-04T04:21:50;100211.56;;;-5.30;100.00
68193;BME280;55012;47.562;18.414;2023-12-04T04:24:16;100227.03;;;-5.34;100.00
68193;BME280;55012;47.562;18.414;2023-12-04T04:26:41;100224.44;;;-5.41;100.00
68193;BME280;55012;47.562;18.414;2023-12-04T04:29:07;100223.06;;;-5.43;100.00
68193;BME280;55012;47.562;18.414;2023-12-04T04:31:32;100221.06;;;-5.48;100.00
68193;BME280;55012;47.562;18.414;2023-12-04T04:33:58;100223.28;;;-5.45;100.00
68193;BME280;55012;47.562;18.414;2023-12-04T04:36:23;100226.28;;;-5.41;100.00
68193;BME280;55012;47.562;18.414;2023-12-04T04:38:49;100226.47;;;-5.36;100.00
68193;BME280;55012;47.562;18.414;2023-12-04T04:41:15;100223.59;;;-5.34;100.00
68193;BME280;55012;47.562;18.414;2023-12-04T04:43:41;100230.25;;;-5.32;100.00
68193;BME280;55012;47.562;18.414;2023-12-04T04:46:07;100228.28;;;-5.37;100.00
68193;BME280;55012;47.562;18.414;2023-12-04T04:48:33;100231.88;;;-5.31;100.00
68193;BME280;55012;47.562;18.414;2023-12-04T04:50:58;100223.53;;;-5.28;100.00
68193;BME280;55012;47.562;18.414;2023-12-04T04:53:24;100227.56;;;-5.25;100.00
68193;BME280;55012;47.562;18.414;2023-12-04T04:55:49;100220.00;;;-5.22;100.00
68193;BME280;55012;47.562;18.414;2023-12-04T04:58:16;100230.56;;;-5.22;100.00
68193;BME280;55012;47.562;18.414;2023-12-04T05:00:41;100226.53;;;-5.24;100.00
68193;BME280;55012;47.562;18.414;2023-12-04T05:03:07;100235.13;;;-5.29;100.00
68193;BME280;55012;47.562;18.414;2023-12-04T05:05:32;100233.47;;;-5.30;100.00
68193;BME280;55012;47.562;18.414;2023-12-04T05:07:58;100228.97;;;-5.23;100.00
68193;BME280;55012;47.562;18.414;2023-12-04T05:10:23;100234.03;;;-5.21;100.00
68193;BME280;55012;47.562;18.414;2023-12-04T05:12:49;100230.19;;;-5.25;100.00
68193;BME280;55012;47.562;18.414;2023-12-04T05:15:14;100218.91;;;-5.32;100.00
68193;BME280;55012;47.562;18.414;2023-12-04T05:17:40;100226.69;;;-5.38;100.00
68193;BME280;55012;47.562;18.414;2023-12-04T05:20:06;100227.91;;;-5.40;100.00
68193;BME280;55012;47.562;18.414;2023-12-04T05:22:33;100229.78;;;-5.47;100.00
68193;BME280;55012;47.562;18.414;2023-12-04T05:24:59;100238.28;;;-5.45;100.00
68193;BME280;55012;47.562;18.414;2023-12-04T05:27:24;100228.56;;;-5.45;100.00
68193;BME280;55012;47.562;18.414;2023-12-04T05:29:50;100220.84;;;-5.46;100.00
68193;BME280;55012;47.562;18.414;2023-12-04T05:32:16;100225.91;;;-5.45;100.00
68193;BME280;55012;47.562;18.414;2023-12-04T05:34:42;100225.47;;;-5.42;100.00
68193;BME280;55012;47.562;18.414;2023-12-04T05:37:07;100222.03;;;-5.42;100.00
68193;BME280;55012;47.562;18.414;2023-12-04T05:39:33;100216.75;;;-5.42;100.00
68193;BME280;55012;47.562;18.414;2023-12-04T05:41:58;100215.97;;;-5.43;100.00
68193;BME280;55012;47.562;18.414;2023-12-04T05:44:24;100218.16;;;-5.40;100.00
68193;BME280;55012;47.562;18.414;2023-12-04T05:46:49;100223.44;;;-5.40;100.00
68193;BME280;55012;47.562;18.414;2023-12-04T05:49:15;100225.03;;;-5.39;100.00
68193;BME280;55012;47.562;18.414;2023-12-04T05:51:40;100228.91;;;-5.41;100.00
68193;BME280;55012;47.562;18.414;2023-12-04T05:54:06;100219.41;;;-5.42;100.00
68193;BME280;55012;47.562;18.414;2023-12-04T05:56:32;100229.13;;;-5.43;100.00
68193;BME280;55012;47.562;18.414;2023-12-04T05:58:57;100230.97;;;-5.43;100.00
68193;BME280;55012;47.562;18.414;2023-12-04T06:01:23;100229.72;;;-5.41;100.00
68193;BME280;55012;47.562;18.414;2023-12-04T06:03:48;100221.00;;;-5.41;100.00
68193;BME280;55012;47.562;18.414;2023-12-04T06:06:14;100228.69;;;-5.40;100.00
68193;BME280;55012;47.562;18.414;2023-12-04T06:08:39;100235.59;;;-5.39;100.00
68193;BME280;55012;47.562;18.414;2023-12-04T06:11:05;100237.63;;;-5.41;100.00
68193;BME280;55012;47.562;18.414;2023-12-04T06:13:30;100242.69;;;-5.39;100.00
68193;BME280;55012;47.562;18.414;2023-12-04T06:15:56;100231.34;;;-5.40;100.00
68193;BME280;55012;47.562;18.414;2023-12-04T06:18:21;100235.59;;;-5.39;100.00
68193;BME280;55012;47.562;18.414;2023-12-04T06:20:47;100234.38;;;-5.36;100.00
68193;BME280;55012;47.562;18.414;2023-12-04T06:23:12;100226.81;;;-5.32;100.00
68193;BME280;55012;47.562;18.414;2023-12-04T06:25:38;100238.34;;;-5.27;100.00
68193;BME280;55012;47.562;18.414;2023-12-04T06:28:04;100228.53;;;-5.20;100.00
68193;BME280;55012;47.562;18.414;2023-12-04T06:30:30;100237.25;;;-5.19;100.00
68193;BME280;55012;47.562;18.414;2023-12-04T06:32:56;100242.47;;;-5.13;100.00
68193;BME280;55012;47.562;18.414;2023-12-04T06:35:22;100239.97;;;-5.07;100.00
68193;BME280;55012;47.562;18.414;2023-12-04T06:37:53;100247.47;;;-5.04;100.00
68193;BME280;55012;47.562;18.414;2023-12-04T06:40:21;100244.97;;;-4.99;100.00
68193;BME280;55012;47.562;18.414;2023-12-04T06:42:48;100246.34;;;-4.97;100.00
68193;BME280;55012;47.562;18.414;2023-12-04T06:45:14;100242.91;;;-4.97;100.00
68193;BME280;55012;47.562;18.414;2023-12-04T06:47:40;100253.06;;;-4.94;100.00
68193;BME280;55012;47.562;18.414;2023-12-04T06:50:08;100262.34;;;-4.92;100.00
68193;BME280;55012;47.562;18.414;2023-12-04T06:52:34;100255.25;;;-4.91;100.00
68193;BME280;55012;47.562;18.414;2023-12-04T06:54:59;100259.22;;;-4.82;100.00
68193;BME280;55012;47.562;18.414;2023-12-04T06:57:25;100258.00;;;-4.79;100.00
68193;BME280;55012;47.562;18.414;2023-12-04T06:59:51;100246.41;;;-4.78;100.00
68193;BME280;55012;47.562;18.414;2023-12-04T07:02:16;100247.94;;;-4.71;100.00
68193;BME280;55012;47.562;18.414;2023-12-04T07:04:42;100248.88;;;-4.65;100.00
68193;BME280;55012;47.562;18.414;2023-12-04T07:07:07;100255.41;;;-4.68;100.00
68193;BME280;55012;47.562;18.414;2023-12-04T07:09:33;100265.09;;;-4.62;100.00
68193;BME280;55012;47.562;18.414;2023-12-04T07:11:59;100274.63;;;-4.61;100.00
68193;BME280;55012;47.562;18.414;2023-12-04T07:14:25;100264.66;;;-4.59;100.00
68193;BME280;55012;47.562;18.414;2023-12-04T07:16:50;100260.75;;;-4.56;100.00
68193;BME280;55012;47.562;18.414;2023-12-04T07:19:16;100270.66;;;-4.52;100.00
68193;BME280;55012;47.562;18.414;2023-12-04T07:21:42;100264.34;;;-4.50;100.00
68193;BME280;55012;47.562;18.414;2023-12-04T07:24:08;100274.03;;;-4.44;100.00
68193;BME280;55012;47.562;18.414;2023-12-04T07:26:34;100266.69;;;-4.42;100.00
68193;BME280;55012;47.562;18.414;2023-12-04T07:29:01;100265.81;;;-4.36;100.00
68193;BME280;55012;47.562;18.414;2023-12-04T07:31:27;100273.69;;;-4.30;100.00
68193;BME280;55012;47.562;18.414;2023-12-04T07:33:53;100276.03;;;-4.21;100.00
68193;BME280;55012;47.562;18.414;2023-12-04T07:36:19;100266.38;;;-4.16;100.00
68193;BME280;55012;47.562;18.414;2023-12-04T07:38:45;100272.38;;;-4.09;100.00
68193;BME280;55012;47.562;18.414;2023-12-04T07:41:10;100268.47;;;-4.06;100.00
68193;BME280;55012;47.562;18.414;2023-12-04T07:43:36;100270.94;;;-4.05;100.00
68193;BME280;55012;47.562;18.414;2023-12-04T07:46:02;100275.91;;;-3.97;100.00
68193;BME280;55012;47.562;18.414;2023-12-04T07:48:29;100269.69;;;-3.90;100.00
68193;BME280;55012;47.562;18.414;2023-12-04T07:50:55;100274.91;;;-3.84;100.00
68193;BME280;55012;47.562;18.414;2023-12-04T07:53:20;100274.81;;;-3.77;100.00
68193;BME280;55012;47.562;18.414;2023-12-04T07:55:46;100276.56;;;-3.71;100.00
68193;BME280;55012;47.562;18.414;2023-12-04T07:58:13;100279.69;;;-3.62;100.00
68193;BME280;55012;47.562;18.414;2023-12-04T08:00:39;100277.53;;;-3.54;100.00
68193;BME280;55012;47.562;18.414;2023-12-04T08:03:04;100276.97;;;-3.44;100.00
68193;BME280;55012;47.562;18.414;2023-12-04T08:05:30;100279.28;;;-3.36;100.00
68193;BME280;55012;47.562;18.414;2023-12-04T08:07:57;100279.75;;;-3.27;100.00
68193;BME280;55012;47.562;18.414;2023-12-04T08:10:23;100281.03;;;-3.18;100.00
68193;BME280;55012;47.562;18.414;2023-12-04T08:12:48;100277.81;;;-3.08;100.00
68193;BME280;55012;47.562;18.414;2023-12-04T08:15:14;100283.56;;;-3.00;100.00
68193;BME280;55012;47.562;18.414;2023-12-04T08:17:40;100281.63;;;-2.93;100.00
68193;BME280;55012;47.562;18.414;2023-12-04T08:20:06;100278.84;;;-2.86;100.00
68193;BME280;55012;47.562;18.414;2023-12-04T08:22:32;100279.56;;;-2.79;100.00
68193;BME280;55012;47.562;18.414;2023-12-04T08:24:57;100270.09;;;-2.75;100.00
68193;BME280;55012;47.562;18.414;2023-12-04T08:27:24;100274.22;;;-2.67;100.00
68193;BME280;55012;47.562;18.414;2023-12-04T08:29:50;100281.59;;;-2.58;100.00
68193;BME280;55012;47.562;18.414;2023-12-04T08:32:15;100274.09;;;-2.49;100.00
68193;BME280;55012;47.562;18.414;2023-12-04T08:34:41;100277.41;;;-2.42;100.00
68193;BME280;55012;47.562;18.414;2023-12-04T08:37:06;100289.03;;;-2.31;100.00
68193;BME280;55012;47.562;18.414;2023-12-04T08:39:32;100277.50;;;-2.25;100.00
68193;BME280;55012;47.562;18.414;2023-12-04T08:41:57;100270.22;;;-2.18;100.00
68193;BME280;55012;47.562;18.414;2023-12-04T08:44:23;100283.00;;;-2.15;100.00
68193;BME280;55012;47.562;18.414;2023-12-04T08:46:49;100268.78;;;-2.09;100.00
68193;BME280;55012;47.562;18.414;2023-12-04T08:49:14;100268.09;;;-2.04;100.00
68193;BME280;55012;47.562;18.414;2023-12-04T08:51:40;100263.72;;;-1.99;100.00
68193;BME280;55012;47.562;18.414;2023-12-04T08:54:06;100275.84;;;-1.86;100.00
68193;BME280;55012;47.562;18.414;2023-12-04T08:56:32;100272.50;;;-1.81;100.00
68193;BME280;55012;47.562;18.414;2023-12-04T08:58:58;100269.47;;;-1.73;100.00
68193;BME280;55012;47.562;18.414;2023-12-04T09:01:23;100270.69;;;-1.64;100.00
68193;BME280;55012;47.562;18.414;2023-12-04T09:03:49;100268.91;;;-1.58;100.00
68193;BME280;55012;47.562;18.414;2023-12-04T09:06:15;100271.75;;;-1.48;100.00
68193;BME280;55012;47.562;18.414;2023-12-04T09:08:41;100269.50;;;-1.39;100.00
68193;BME280;55012;47.562;18.414;2023-12-04T09:11:07;100269.03;;;-1.36;100.00
68193;BME280;55012;47.562;18.414;2023-12-04T09:13:32;100260.66;;;-1.28;100.00
68193;BME280;55012;47.562;18.414;2023-12-04T09:15:59;100263.47;;;-1.18;100.00
68193;BME280;55012;47.562;18.414;2023-12-04T09:18:25;100268.72;;;-1.06;100.00
68193;BME280;55012;47.562;18.414;2023-12-04T09:20:50;100259.28;;;-0.97;100.00
68193;BME280;55012;47.562;18.414;2023-12-04T09:23:16;100249.75;;;-0.93;100.00
68193;BME280;55012;47.562;18.414;2023-12-04T09:25:41;100249.91;;;-0.83;100.00
68193;BME280;55012;47.562;18.414;2023-12-04T09:28:07;100249.47;;;-0.75;100.00
68193;BME280;55012;47.562;18.414;2023-12-04T09:30:34;100244.78;;;-0.68;100.00
68193;BME280;55012;47.562;18.414;2023-12-04T09:33:00;100241.16;;;-0.62;100.00
68193;BME280;55012;47.562;18.414;2023-12-04T09:35:26;100244.69;;;-0.56;100.00
68193;BME280;55012;47.562;18.414;2023-12-04T09:37:51;100247.97;;;-0.49;100.00
68193;BME280;55012;47.562;18.414;2023-12-04T09:40:17;100247.22;;;-0.44;100.00
68193;BME280;55012;47.562;18.414;2023-12-04T09:42:43;100250.25;;;-0.36;100.00
68193;BME280;55012;47.562;18.414;2023-12-04T09:45:09;100228.31;;;-0.48;100.00
68193;BME280;55012;47.562;18.414;2023-12-04T09:47:35;100252.22;;;-0.26;100.00
68193;BME280;55012;47.562;18.414;2023-12-04T09:50:02;100254.69;;;-0.19;100.00
68193;BME280;55012;47.562;18.414;2023-12-04T09:52:28;100245.72;;;-0.13;100.00
68193;BME280;55012;47.562;18.414;2023-12-04T09:54:53;100251.66;;;-0.06;100.00
68193;BME280;55012;47.562;18.414;2023-12-04T09:57:19;100250.16;;;0.03;100.00
68193;BME280;55012;47.562;18.414;2023-12-04T09:59:44;100252.84;;;0.08;100.00
68193;BME280;55012;47.562;18.414;2023-12-04T10:02:11;100254.22;;;0.11;100.00
68193;BME280;55012;47.562;18.414;2023-12-04T10:04:37;100259.09;;;0.19;100.00
68193;BME280;55012;47.562;18.414;2023-12-04T10:07:03;100258.59;;;0.22;100.00
68193;BME280;55012;47.562;18.414;2023-12-04T10:09:29;100261.56;;;0.25;100.00
68193;BME280;55012;47.562;18.414;2023-12-04T10:11:56;100262.41;;;0.31;100.00
68193;BME280;55012;47.562;18.414;2023-12-04T10:14:22;100257.13;;;0.36;100.00
68193;BME280;55012;47.562;18.414;2023-12-04T10:16:49;100254.28;;;0.43;100.00
68193;BME280;55012;47.562;18.414;2023-12-04T10:19:25;100261.69;;;0.41;100.00
68193;BME280;55012;47.562;18.414;2023-12-04T10:21:52;100261.47;;;0.42;100.00
68193;BME280;55012;47.562;18.414;2023-12-04T10:24:35;100261.75;;;0.46;100.00
68193;BME280;55012;47.562;18.414;2023-12-04T10:27:02;100253.50;;;0.47;100.00
68193;BME280;55012;47.562;18.414;2023-12-04T10:29:40;100252.22;;;0.50;100.00
68193;BME280;55012;47.562;18.414;2023-12-04T10:32:07;100239.41;;;0.47;100.00
68193;BME280;55012;47.562;18.414;2023-12-04T10:34:33;100238.34;;;0.48;100.00
68193;BME280;55012;47.562;18.414;2023-12-04T10:36:59;100232.53;;;0.51;100.00
68193;BME280;55012;47.562;18.414;2023-12-04T10:39:25;100234.38;;;0.50;100.00
68193;BME280;55012;47.562;18.414;2023-12-04T10:42:01;100226.94;;;0.52;100.00
68193;BME280;55012;47.562;18.414;2023-12-04T10:44:27;100225.63;;;0.55;100.00
68193;BME280;55012;47.562;18.414;2023-12-04T10:46:55;100218.22;;;0.62;100.00
68193;BME280;55012;47.562;18.414;2023-12-04T10:49:26;100218.28;;;0.67;100.00
68193;BME280;55012;47.562;18.414;2023-12-04T10:51:52;100216.94;;;0.70;100.00
68193;BME280;55012;47.562;18.414;2023-12-04T10:54:19;100221.75;;;0.73;100.00
68193;BME280;55012;47.562;18.414;2023-12-04T10:56:44;100212.22;;;0.77;100.00
68193;BME280;55012;47.562;18.414;2023-12-04T10:59:14;100217.81;;;0.80;100.00
68193;BME280;55012;47.562;18.414;2023-12-04T11:01:44;100211.41;;;0.76;100.00
68193;BME280;55012;47.562;18.414;2023-12-04T11:04:17;100217.00;;;0.80;100.00
68193;BME280;55012;47.562;18.414;2023-12-04T11:06:49;100208.75;;;0.81;100.00
68193;BME280;55012;47.562;18.414;2023-12-04T11:09:17;100205.28;;;0.81;100.00
68193;BME280;55012;47.562;18.414;2023-12-04T11:11:48;100206.94;;;0.87;100.00
68193;BME280;55012;47.562;18.414;2023-12-04T11:14:20;100202.16;;;0.89;100.00
68193;BME280;55012;47.562;18.414;2023-12-04T11:16:49;100210.66;;;0.86;100.00
68193;BME280;55012;47.562;18.414;2023-12-04T11:19:36;100199.50;;;0.89;100.00
68193;BME280;55012;47.562;18.414;2023-12-04T11:22:07;100195.28;;;0.93;100.00
68193;BME280;55012;47.562;18.414;2023-12-04T11:24:35;100192.88;;;0.97;100.00
68193;BME280;55012;47.562;18.414;2023-12-04T11:27:01;100203.84;;;1.00;100.00
68193;BME280;55012;47.562;18.414;2023-12-04T11:29:29;100192.13;;;1.01;100.00
68193;BME280;55012;47.562;18.414;2023-12-04T11:31:55;100192.91;;;1.02;100.00
68193;BME280;55012;47.562;18.414;2023-12-04T11:34:21;100199.06;;;1.02;100.00
68193;BME280;55012;47.562;18.414;2023-12-04T11:36:46;100186.81;;;1.06;100.00
68193;BME280;55012;47.562;18.414;2023-12-04T11:39:12;100186.56;;;1.13;100.00
68193;BME280;55012;47.562;18.414;2023-12-04T11:41:41;100183.69;;;1.20;100.00
68193;BME280;55012;47.562;18.414;2023-12-04T11:44:13;100183.44;;;1.26;100.00
68193;BME280;55012;47.562;18.414;2023-12-04T11:47:03;100175.50;;;1.36;100.00
68193;BME280;55012;47.562;18.414;2023-12-04T11:49:30;100163.22;;;1.40;100.00
68193;BME280;55012;47.562;18.414;2023-12-04T11:52:05;100160.06;;;1.49;100.00
68193;BME280;55012;47.562;18.414;2023-12-04T11:54:57;100155.28;;;1.56;100.00
68193;BME280;55012;47.562;18.414;2023-12-04T11:57:24;100142.50;;;1.58;100.00
68193;BME280;55012;47.562;18.414;2023-12-04T11:59:51;100147.81;;;1.53;100.00
68193;BME280;55012;47.562;18.414;2023-12-04T12:02:17;100137.94;;;1.53;100.00
68193;BME280;55012;47.562;18.414;2023-12-04T12:04:43;100136.63;;;1.56;100.00
68193;BME280;55012;47.562;18.414;2023-12-04T12:07:10;100131.84;;;1.58;100.00
68193;BME280;55012;47.562;18.414;2023-12-04T12:09:36;100134.50;;;1.58;100.00
68193;BME280;55012;47.562;18.414;2023-12-04T12:12:02;100121.44;;;1.61;100.00
68193;BME280;55012;47.562;18.414;2023-12-04T12:14:29;100120.38;;;1.57;100.00
68193;BME280;55012;47.562;18.414;2023-12-04T12:16:57;100121.72;;;1.70;100.00
68193;BME280;55012;47.562;18.414;2023-12-04T12:19:24;100118.00;;;1.76;100.00
68193;BME280;55012;47.562;18.414;2023-12-04T12:21:49;100120.13;;;1.89;100.00
68193;BME280;55012;47.562;18.414;2023-12-04T12:24:17;100121.50;;;1.92;100.00
68193;BME280;55012;47.562;18.414;2023-12-04T12:26:42;100110.00;;;1.96;100.00
68193;BME280;55012;47.562;18.414;2023-12-04T12:29:11;100114.53;;;2.06;100.00